Terminal Aerodrome Forecast
Issued by NWS

Home | Current Version | Previous Version | Text Only | Print | Product List | Glossary On
Versions: 1 2 3 4 5 6 7 8 9 10 11 12 13 14 15 16
000
FTUS45 KSLC 132321
TAFLGU
TAF
KLGU 132321Z 1400/1424 00000KT 6SM BR SCT003 BKN090
     FM140200 35003KT 3SM BR BCFG VCSH FEW002 BKN050
     FM140700 VRB03KT 1/4SM FZFG OVC003
     FM141600 VRB03KT 6SM BR SCT009 BKN050
      AMD NOT SKED=

USA.gov is the U.S. government's official web portal to all federal, state and local government web resources and services.